| Date | Time | Temp. (oF) | Dew Point (oF) | Rel. Hum. (%) | Press. (in.) | Wind Dir. | Wind Speed (mph) | Hourly Rainfall (in.) |
|
|---|---|---|---|---|---|---|---|---|---|
| 1 | 11/03 | 00:00 | 54 | 49 | 85 | 30.14 | S | 0 | 0.00 |
| 2 | 11/02 | 23:00 | 56 | 50 | 83 | 30.15 | S | 0 | 0.00 |
| 3 | 11/02 | 22:00 | 58 | 51 | 79 | 30.16 | SW | 0 | 0.00 |
| 4 | 11/02 | 21:00 | 61 | 52 | 75 | 30.16 | W | 0 | 0.00 |
| 5 | 11/02 | 20:00 | 62 | 52 | 72 | 30.16 | W | 0 | 0.00 |
| 6 | 11/02 | 19:00 | 65 | 54 | 69 | 30.17 | WSW | 0 | 0.00 |
| 7 | 11/02 | 18:00 | 69 | 54 | 60 | 30.16 | WSW | 0 | 0.00 |
| 8 | 11/02 | 17:00 | 71 | 54 | 56 | 30.16 | SW | 0 | 0.00 |
| 9 | 11/02 | 16:00 | 72 | 53 | 53 | 30.17 | W | 0 | 0.00 |
| 10 | 11/02 | 15:00 | 71 | 52 | 53 | 30.18 | WSW | 1 | 0.00 |
| 11 | 11/02 | 14:00 | 69 | 53 | 58 | 30.21 | W | 0 | 0.00 |
| 12 | 11/02 | 13:00 | 66 | 52 | 62 | 30.24 | WSW | 0 | 0.00 |
| 13 | 11/02 | 12:00 | 62 | 51 | 68 | 30.27 | SW | 0 | 0.00 |
| 14 | 11/02 | 11:00 | 57 | 49 | 76 | 30.29 | WSW | 2 | 0.00 |
| 15 | 11/02 | 10:00 | 53 | 48 | 85 | 30.30 | SW | 1 | 0.00 |
| 16 | 11/02 | 09:00 | 46 | 44 | 93 | 30.30 | WNW | 0 | 0.00 |
| 17 | 11/02 | 08:00 | 42 | 39 | 90 | 30.30 | WNW | 0 | 0.00 |
| 18 | 11/02 | 07:00 | 42 | 38 | 89 | 30.30 | WNW | 0 | 0.00 |
| 19 | 11/02 | 06:00 | 43 | 39 | 88 | 30.30 | WNW | 0 | 0.00 |
| 20 | 11/02 | 05:00 | 43 | 39 | 88 | 30.29 | WNW | 0 | 0.00 |
| 21 | 11/02 | 04:00 | 43 | 39 | 86 | 30.30 | WNW | 0 | 0.00 |
| 22 | 11/02 | 03:00 | 44 | 39 | 85 | 30.31 | WNW | 0 | 0.00 |
| 23 | 11/02 | 02:00 | 44 | 39 | 85 | 30.31 | WSW | 0 | 0.00 |
| 24 | 11/02 | 01:00 | 45 | 39 | 82 | 30.31 | SSW | 0 | 0.00 |